sensor_id;sensor_type;location;lat;lon;timestamp;temperature;humidity
49222;DHT22;35047;37.588;-122.048;2023-05-07T00:00:05;24.10;58.30
49222;DHT22;35047;37.588;-122.048;2023-05-07T00:02:35;24.20;57.70
49222;DHT22;35047;37.588;-122.048;2023-05-07T00:05:03;24.30;59.40
49222;DHT22;35047;37.588;-122.048;2023-05-07T00:07:30;24.40;58.90
49222;DHT22;35047;37.588;-122.048;2023-05-07T00:09:56;24.40;58.90
49222;DHT22;35047;37.588;-122.048;2023-05-07T00:12:22;24.70;59.40
49222;DHT22;35047;37.588;-122.048;2023-05-07T00:14:49;24.80;57.80
49222;DHT22;35047;37.588;-122.048;2023-05-07T00:17:15;24.90;58.60
49222;DHT22;35047;37.588;-122.048;2023-05-07T00:19:42;25.00;57.10
49222;DHT22;35047;37.588;-122.048;2023-05-07T00:22:08;25.10;57.90
49222;DHT22;35047;37.588;-122.048;2023-05-07T00:24:35;25.20;57.50
49222;DHT22;35047;37.588;-122.048;2023-05-07T00:27:02;25.20;57.30
49222;DHT22;35047;37.588;-122.048;2023-05-07T00:29:28;25.10;57.80
49222;DHT22;35047;37.588;-122.048;2023-05-07T00:31:55;25.20;57.80
49222;DHT22;35047;37.588;-122.048;2023-05-07T00:34:21;25.20;57.40
49222;DHT22;35047;37.588;-122.048;2023-05-07T00:36:49;25.20;57.00
49222;DHT22;35047;37.588;-122.048;2023-05-07T00:39:15;25.20;57.30
49222;DHT22;35047;37.588;-122.048;2023-05-07T00:41:42;25.10;57.30
49222;DHT22;35047;37.588;-122.048;2023-05-07T00:44:08;24.90;57.40
49222;DHT22;35047;37.588;-122.048;2023-05-07T00:46:35;24.80;58.20
49222;DHT22;35047;37.588;-122.048;2023-05-07T00:49:01;24.50;58.80
49222;DHT22;35047;37.588;-122.048;2023-05-07T00:51:29;24.50;58.50
49222;DHT22;35047;37.588;-122.048;2023-05-07T00:53:56;24.60;58.90
49222;DHT22;35047;37.588;-122.048;2023-05-07T00:56:23;24.60;58.10
49222;DHT22;35047;37.588;-122.048;2023-05-07T00:58:50;24.60;58.80
49222;DHT22;35047;37.588;-122.048;2023-05-07T01:01:17;24.70;59.00
49222;DHT22;35047;37.588;-122.048;2023-05-07T01:03:43;24.70;58.80
49222;DHT22;35047;37.588;-122.048;2023-05-07T01:06:10;24.80;57.80
49222;DHT22;35047;37.588;-122.048;2023-05-07T01:08:40;24.90;58.10
49222;DHT22;35047;37.588;-122.048;2023-05-07T01:11:07;24.90;58.50
49222;DHT22;35047;37.588;-122.048;2023-05-07T01:13:35;24.90;58.70
49222;DHT22;35047;37.588;-122.048;2023-05-07T01:16:03;24.50;58.80
49222;DHT22;35047;37.588;-122.048;2023-05-07T01:18:30;24.60;58.50
49222;DHT22;35047;37.588;-122.048;2023-05-07T01:20:58;24.70;58.70
49222;DHT22;35047;37.588;-122.048;2023-05-07T01:23:26;24.90;58.70
49222;DHT22;35047;37.588;-122.048;2023-05-07T01:25:54;24.90;58.90
49222;DHT22;35047;37.588;-122.048;2023-05-07T01:28:20;25.00;59.40
49222;DHT22;35047;37.588;-122.048;2023-05-07T01:30:52;24.90;58.80
49222;DHT22;35047;37.588;-122.048;2023-05-07T01:33:21;25.00;58.50
49222;DHT22;35047;37.588;-122.048;2023-05-07T01:35:51;24.80;58.90
49222;DHT22;35047;37.588;-122.048;2023-05-07T01:38:18;24.80;59.20
49222;DHT22;35047;37.588;-122.048;2023-05-07T01:40:46;24.80;59.50
49222;DHT22;35047;37.588;-122.048;2023-05-07T01:43:12;24.70;59.20
49222;DHT22;35047;37.588;-122.048;2023-05-07T01:45:40;24.60;59.60
49222;DHT22;35047;37.588;-122.048;2023-05-07T01:48:07;24.50;59.70
49222;DHT22;35047;37.588;-122.048;2023-05-07T01:50:35;24.30;60.00
49222;DHT22;35047;37.588;-122.048;2023-05-07T01:53:03;24.10;59.90
49222;DHT22;35047;37.588;-122.048;2023-05-07T01:55:29;23.80;60.40
49222;DHT22;35047;37.588;-122.048;2023-05-07T01:57:56;23.60;60.80
49222;DHT22;35047;37.588;-122.048;2023-05-07T02:00:22;23.50;61.60
49222;DHT22;35047;37.588;-122.048;2023-05-07T02:02:49;23.20;61.70
49222;DHT22;35047;37.588;-122.048;2023-05-07T02:05:15;23.10;62.50
49222;DHT22;35047;37.588;-122.048;2023-05-07T02:07:42;22.90;62.70
49222;DHT22;35047;37.588;-122.048;2023-05-07T02:10:09;22.80;62.70
49222;DHT22;35047;37.588;-122.048;2023-05-07T02:12:36;22.60;62.90
49222;DHT22;35047;37.588;-122.048;2023-05-07T02:15:02;22.40;63.70
49222;DHT22;35047;37.588;-122.048;2023-05-07T02:17:29;22.40;64.60
49222;DHT22;35047;37.588;-122.048;2023-05-07T02:19:57;22.30;64.30
49222;DHT22;35047;37.588;-122.048;2023-05-07T02:22:24;22.10;64.40
49222;DHT22;35047;37.588;-122.048;2023-05-07T02:24:51;22.10;64.70
49222;DHT22;35047;37.588;-122.048;2023-05-07T02:27:17;22.00;65.00
49222;DHT22;35047;37.588;-122.048;2023-05-07T02:29:44;21.90;65.50
49222;DHT22;35047;37.588;-122.048;2023-05-07T02:32:10;21.80;65.40
49222;DHT22;35047;37.588;-122.048;2023-05-07T02:34:37;21.60;66.00
49222;DHT22;35047;37.588;-122.048;2023-05-07T02:37:03;21.50;67.20
49222;DHT22;35047;37.588;-122.048;2023-05-07T02:39:29;21.40;67.20
49222;DHT22;35047;37.588;-122.048;2023-05-07T02:41:56;21.30;67.50
49222;DHT22;35047;37.588;-122.048;2023-05-07T02:44:22;21.30;67.50
49222;DHT22;35047;37.588;-122.048;2023-05-07T02:46:50;21.20;67.60
49222;DHT22;35047;37.588;-122.048;2023-05-07T02:49:16;21.20;68.10
49222;DHT22;35047;37.588;-122.048;2023-05-07T02:51:43;21.10;67.80
49222;DHT22;35047;37.588;-122.048;2023-05-07T02:54:09;21.00;68.30
49222;DHT22;35047;37.588;-122.048;2023-05-07T02:56:36;21.00;68.00
49222;DHT22;35047;37.588;-122.048;2023-05-07T02:59:02;20.90;67.80
49222;DHT22;35047;37.588;-122.048;2023-05-07T03:01:29;20.80;68.20
49222;DHT22;35047;37.588;-122.048;2023-05-07T03:03:55;20.70;68.60
49222;DHT22;35047;37.588;-122.048;2023-05-07T03:06:22;20.70;69.00
49222;DHT22;35047;37.588;-122.048;2023-05-07T03:08:48;20.70;69.20
49222;DHT22;35047;37.588;-122.048;2023-05-07T03:11:15;20.80;69.30
49222;DHT22;35047;37.588;-122.048;2023-05-07T03:13:41;20.60;69.60
49222;DHT22;35047;37.588;-122.048;2023-05-07T03:16:08;20.60;69.60
49222;DHT22;35047;37.588;-122.048;2023-05-07T03:18:34;20.60;69.20
49222;DHT22;35047;37.588;-122.048;2023-05-07T03:21:01;20.50;69.90
49222;DHT22;35047;37.588;-122.048;2023-05-07T03:23:27;20.50;70.20
49222;DHT22;35047;37.588;-122.048;2023-05-07T03:25:53;20.50;70.20
49222;DHT22;35047;37.588;-122.048;2023-05-07T03:28:20;20.40;70.20
49222;DHT22;35047;37.588;-122.048;2023-05-07T03:30:47;20.30;70.40
49222;DHT22;35047;37.588;-122.048;2023-05-07T03:33:14;20.30;70.60
49222;DHT22;35047;37.588;-122.048;2023-05-07T03:35:41;20.30;70.80
49222;DHT22;35047;37.588;-122.048;2023-05-07T03:38:07;20.20;70.80
49222;DHT22;35047;37.588;-122.048;2023-05-07T03:40:34;20.20;70.70
49222;DHT22;35047;37.588;-122.048;2023-05-07T03:43:00;20.20;70.70
49222;DHT22;35047;37.588;-122.048;2023-05-07T03:45:27;20.10;70.70
49222;DHT22;35047;37.588;-122.048;2023-05-07T03:47:53;20.10;71.20
49222;DHT22;35047;37.588;-122.048;2023-05-07T03:50:21;20.10;70.90
49222;DHT22;35047;37.588;-122.048;2023-05-07T03:52:47;20.10;71.10
49222;DHT22;35047;37.588;-122.048;2023-05-07T03:55:14;20.10;71.10
49222;DHT22;35047;37.588;-122.048;2023-05-07T03:57:40;20.10;71.30
49222;DHT22;35047;37.588;-122.048;2023-05-07T04:00:07;20.10;71.40
49222;DHT22;35047;37.588;-122.048;2023-05-07T04:02:34;20.10;71.30
49222;DHT22;35047;37.588;-122.048;2023-05-07T04:05:00;20.10;71.30
49222;DHT22;35047;37.588;-122.048;2023-05-07T04:07:27;20.10;71.20
49222;DHT22;35047;37.588;-122.048;2023-05-07T04:09:53;20.10;71.00
49222;DHT22;35047;37.588;-122.048;2023-05-07T04:12:20;20.10;71.50
49222;DHT22;35047;37.588;-122.048;2023-05-07T04:14:46;20.10;71.70
49222;DHT22;35047;37.588;-122.048;2023-05-07T04:17:13;20.00;71.30
49222;DHT22;35047;37.588;-122.048;2023-05-07T04:19:39;20.00;70.50
49222;DHT22;35047;37.588;-122.048;2023-05-07T04:22:11;20.00;71.00
49222;DHT22;35047;37.588;-122.048;2023-05-07T04:24:38;19.90;71.00
49222;DHT22;35047;37.588;-122.048;2023-05-07T04:27:04;19.90;70.80
49222;DHT22;35047;37.588;-122.048;2023-05-07T04:29:32;19.90;70.80
49222;DHT22;35047;37.588;-122.048;2023-05-07T04:31:58;19.90;70.70
49222;DHT22;35047;37.588;-122.048;2023-05-07T04:34:26;19.90;70.70
49222;DHT22;35047;37.588;-122.048;2023-05-07T04:36:52;19.90;70.30
49222;DHT22;35047;37.588;-122.048;2023-05-07T04:39:19;19.90;70.10
49222;DHT22;35047;37.588;-122.048;2023-05-07T04:41:45;19.80;70.10
49222;DHT22;35047;37.588;-122.048;2023-05-07T04:44:12;19.80;70.60
49222;DHT22;35047;37.588;-122.048;2023-05-07T04:46:38;19.80;70.60
49222;DHT22;35047;37.588;-122.048;2023-05-07T04:49:05;19.80;70.50
49222;DHT22;35047;37.588;-122.048;2023-05-07T04:51:31;19.70;70.60
49222;DHT22;35047;37.588;-122.048;2023-05-07T04:53:58;19.80;70.00
49222;DHT22;35047;37.588;-122.048;2023-05-07T04:56:28;19.70;70.40
49222;DHT22;35047;37.588;-122.048;2023-05-07T04:58:55;19.80;70.10
49222;DHT22;35047;37.588;-122.048;2023-05-07T05:01:22;19.80;69.70
49222;DHT22;35047;37.588;-122.048;2023-05-07T05:03:48;19.80;69.90
49222;DHT22;35047;37.588;-122.048;2023-05-07T05:06:15;19.90;69.70
49222;DHT22;35047;37.588;-122.048;2023-05-07T05:08:41;19.80;69.20
49222;DHT22;35047;37.588;-122.048;2023-05-07T05:11:08;19.80;69.30
49222;DHT22;35047;37.588;-122.048;2023-05-07T05:13:34;19.80;69.20
49222;DHT22;35047;37.588;-122.048;2023-05-07T05:16:00;19.80;68.90
49222;DHT22;35047;37.588;-122.048;2023-05-07T05:18:27;19.80;68.60
49222;DHT22;35047;37.588;-122.048;2023-05-07T05:20:53;19.80;68.50
49222;DHT22;35047;37.588;-122.048;2023-05-07T05:23:20;19.70;68.60
49222;DHT22;35047;37.588;-122.048;2023-05-07T05:25:46;19.80;68.70
49222;DHT22;35047;37.588;-122.048;2023-05-07T05:28:13;19.80;68.40
49222;DHT22;35047;37.588;-122.048;2023-05-07T05:30:39;19.80;67.90
49222;DHT22;35047;37.588;-122.048;2023-05-07T05:33:06;19.80;67.90
49222;DHT22;35047;37.588;-122.048;2023-05-07T05:35:33;19.70;67.80
49222;DHT22;35047;37.588;-122.048;2023-05-07T05:38:00;19.70;68.10
49222;DHT22;35047;37.588;-122.048;2023-05-07T05:40:27;19.70;68.50
49222;DHT22;35047;37.588;-122.048;2023-05-07T05:42:53;19.70;67.60
49222;DHT22;35047;37.588;-122.048;2023-05-07T05:45:20;19.70;67.70
49222;DHT22;35047;37.588;-122.048;2023-05-07T05:47:46;19.70;67.80
49222;DHT22;35047;37.588;-122.048;2023-05-07T05:50:13;19.70;68.00
49222;DHT22;35047;37.588;-122.048;2023-05-07T05:52:39;19.60;68.10
49222;DHT22;35047;37.588;-122.048;2023-05-07T05:55:07;19.60;68.10
49222;DHT22;35047;37.588;-122.048;2023-05-07T05:57:33;19.60;68.10
49222;DHT22;35047;37.588;-122.048;2023-05-07T06:00:01;19.50;68.10
49222;DHT22;35047;37.588;-122.048;2023-05-07T06:02:28;19.50;68.40
49222;DHT22;35047;37.588;-122.048;2023-05-07T06:04:55;19.40;69.00
49222;DHT22;35047;37.588;-122.048;2023-05-07T06:07:21;19.40;68.70
49222;DHT22;35047;37.588;-122.048;2023-05-07T06:09:48;19.40;68.90
49222;DHT22;35047;37.588;-122.048;2023-05-07T06:12:14;19.40;69.20
49222;DHT22;35047;37.588;-122.048;2023-05-07T06:14:43;19.40;69.40
49222;DHT22;35047;37.588;-122.048;2023-05-07T06:17:09;19.40;69.50
49222;DHT22;35047;37.588;-122.048;2023-05-07T06:19:36;19.40;70.00
49222;DHT22;35047;37.588;-122.048;2023-05-07T06:22:03;19.40;69.70
49222;DHT22;35047;37.588;-122.048;2023-05-07T06:24:29;19.50;69.70
49222;DHT22;35047;37.588;-122.048;2023-05-07T06:26:56;19.50;69.60
49222;DHT22;35047;37.588;-122.048;2023-05-07T06:29:25;19.50;69.70
49222;DHT22;35047;37.588;-122.048;2023-05-07T06:31:56;19.40;69.30
49222;DHT22;35047;37.588;-122.048;2023-05-07T06:34:22;19.40;69.70
49222;DHT22;35047;37.588;-122.048;2023-05-07T06:36:49;19.30;70.00
49222;DHT22;35047;37.588;-122.048;2023-05-07T06:39:15;19.30;70.10
49222;DHT22;35047;37.588;-122.048;2023-05-07T06:41:42;19.30;70.30
49222;DHT22;35047;37.588;-122.048;2023-05-07T06:44:08;19.30;70.60
49222;DHT22;35047;37.588;-122.048;2023-05-07T06:46:34;19.30;70.60
49222;DHT22;35047;37.588;-122.048;2023-05-07T06:49:01;19.30;70.10
49222;DHT22;35047;37.588;-122.048;2023-05-07T06:51:27;19.20;70.20
49222;DHT22;35047;37.588;-122.048;2023-05-07T06:53:54;19.20;69.90
49222;DHT22;35047;37.588;-122.048;2023-05-07T06:56:20;19.20;70.00
49222;DHT22;35047;37.588;-122.048;2023-05-07T06:58:47;19.20;70.30
49222;DHT22;35047;37.588;-122.048;2023-05-07T07:01:13;19.10;70.10
49222;DHT22;35047;37.588;-122.048;2023-05-07T07:03:39;19.10;70.40
49222;DHT22;35047;37.588;-122.048;2023-05-07T07:06:06;19.10;70.50
49222;DHT22;35047;37.588;-122.048;2023-05-07T07:08:32;19.00;70.50
49222;DHT22;35047;37.588;-122.048;2023-05-07T07:11:00;19.10;70.80
49222;DHT22;35047;37.588;-122.048;2023-05-07T07:13:26;19.10;71.20
49222;DHT22;35047;37.588;-122.048;2023-05-07T07:15:53;19.10;70.80
49222;DHT22;35047;37.588;-122.048;2023-05-07T07:18:20;19.00;70.60
49222;DHT22;35047;37.588;-122.048;2023-05-07T07:20:47;19.00;70.90
49222;DHT22;35047;37.588;-122.048;2023-05-07T07:23:14;19.00;70.60
49222;DHT22;35047;37.588;-122.048;2023-05-07T07:25:41;19.00;70.60
49222;DHT22;35047;37.588;-122.048;2023-05-07T07:28:07;18.90;71.00
49222;DHT22;35047;37.588;-122.048;2023-05-07T07:30:34;18.90;70.90
49222;DHT22;35047;37.588;-122.048;2023-05-07T07:33:00;19.00;70.90
49222;DHT22;35047;37.588;-122.048;2023-05-07T07:35:35;18.90;70.90
49222;DHT22;35047;37.588;-122.048;2023-05-07T07:38:01;18.90;71.10
49222;DHT22;35047;37.588;-122.048;2023-05-07T07:40:31;18.90;71.20
49222;DHT22;35047;37.588;-122.048;2023-05-07T07:42:57;18.90;71.10
49222;DHT22;35047;37.588;-122.048;2023-05-07T07:45:24;18.90;71.00
49222;DHT22;35047;37.588;-122.048;2023-05-07T07:47:51;18.90;71.10
49222;DHT22;35047;37.588;-122.048;2023-05-07T07:50:17;18.90;70.40
49222;DHT22;35047;37.588;-122.048;2023-05-07T07:52:44;18.90;69.70
49222;DHT22;35047;37.588;-122.048;2023-05-07T07:55:11;18.80;69.50
49222;DHT22;35047;37.588;-122.048;2023-05-07T07:57:38;18.90;69.80
49222;DHT22;35047;37.588;-122.048;2023-05-07T08:00:05;18.90;70.20
49222;DHT22;35047;37.588;-122.048;2023-05-07T08:02:33;18.90;69.70
49222;DHT22;35047;37.588;-122.048;2023-05-07T08:05:00;18.80;69.60
49222;DHT22;35047;37.588;-122.048;2023-05-07T08:07:26;18.90;69.90
49222;DHT22;35047;37.588;-122.048;2023-05-07T08:09:53;18.80;70.40
49222;DHT22;35047;37.588;-122.048;2023-05-07T08:12:19;18.80;70.80
49222;DHT22;35047;37.588;-122.048;2023-05-07T08:14:46;18.80;71.30
49222;DHT22;35047;37.588;-122.048;2023-05-07T08:17:12;18.80;71.30
49222;DHT22;35047;37.588;-122.048;2023-05-07T08:19:42;18.80;71.40
49222;DHT22;35047;37.588;-122.048;2023-05-07T08:22:09;18.90;71.90
49222;DHT22;35047;37.588;-122.048;2023-05-07T08:24:37;18.80;71.70
49222;DHT22;35047;37.588;-122.048;2023-05-07T08:27:03;18.80;72.00
49222;DHT22;35047;37.588;-122.048;2023-05-07T08:29:30;18.70;72.10
49222;DHT22;35047;37.588;-122.048;2023-05-07T08:31:56;18.70;72.00
49222;DHT22;35047;37.588;-122.048;2023-05-07T08:34:23;18.70;72.10
49222;DHT22;35047;37.588;-122.048;2023-05-07T08:36:49;18.60;72.30
49222;DHT22;35047;37.588;-122.048;2023-05-07T08:39:16;18.60;72.70
49222;DHT22;35047;37.588;-122.048;2023-05-07T08:41:45;18.50;73.10
49222;DHT22;35047;37.588;-122.048;2023-05-07T08:44:13;18.50;72.90
49222;DHT22;35047;37.588;-122.048;2023-05-07T08:46:41;18.40;73.00
49222;DHT22;35047;37.588;-122.048;2023-05-07T08:49:09;18.40;73.40
49222;DHT22;35047;37.588;-122.048;2023-05-07T08:51:36;18.40;74.20
49222;DHT22;35047;37.588;-122.048;2023-05-07T08:54:04;18.40;74.10
49222;DHT22;35047;37.588;-122.048;2023-05-07T08:56:31;18.40;74.00
49222;DHT22;35047;37.588;-122.048;2023-05-07T08:58:58;18.40;74.20
49222;DHT22;35047;37.588;-122.048;2023-05-07T09:01:25;18.30;73.80
49222;DHT22;35047;37.588;-122.048;2023-05-07T09:03:53;18.30;73.90
49222;DHT22;35047;37.588;-122.048;2023-05-07T09:06:20;18.30;73.90
49222;DHT22;35047;37.588;-122.048;2023-05-07T09:08:52;18.30;73.70
49222;DHT22;35047;37.588;-122.048;2023-05-07T09:11:22;18.20;73.80
49222;DHT22;35047;37.588;-122.048;2023-05-07T09:13:58;18.30;74.00
49222;DHT22;35047;37.588;-122.048;2023-05-07T09:16:30;18.30;73.80
49222;DHT22;35047;37.588;-122.048;2023-05-07T09:18:58;18.30;74.60
49222;DHT22;35047;37.588;-122.048;2023-05-07T09:21:24;18.30;74.60
49222;DHT22;35047;37.588;-122.048;2023-05-07T09:23:53;18.30;74.10
49222;DHT22;35047;37.588;-122.048;2023-05-07T09:26:24;18.30;74.10
49222;DHT22;35047;37.588;-122.048;2023-05-07T09:28:51;18.30;74.20
49222;DHT22;35047;37.588;-122.048;2023-05-07T09:31:18;18.30;74.30
49222;DHT22;35047;37.588;-122.048;2023-05-07T09:33:45;18.30;74.70
49222;DHT22;35047;37.588;-122.048;2023-05-07T09:36:12;18.30;74.70
49222;DHT22;35047;37.588;-122.048;2023-05-07T09:38:38;18.20;74.80
49222;DHT22;35047;37.588;-122.048;2023-05-07T09:43:34;18.20;74.80
49222;DHT22;35047;37.588;-122.048;2023-05-07T09:46:25;18.30;75.10
49222;DHT22;35047;37.588;-122.048;2023-05-07T09:48:57;18.30;75.40
49222;DHT22;35047;37.588;-122.048;2023-05-07T09:51:41;18.30;74.90
49222;DHT22;35047;37.588;-122.048;2023-05-07T09:54:10;18.30;75.20
49222;DHT22;35047;37.588;-122.048;2023-05-07T09:56:37;18.30;75.10
49222;DHT22;35047;37.588;-122.048;2023-05-07T09:59:09;18.20;75.20
49222;DHT22;35047;37.588;-122.048;2023-05-07T10:01:37;18.30;75.00
49222;DHT22;35047;37.588;-122.048;2023-05-07T10:04:04;18.30;75.20
49222;DHT22;35047;37.588;-122.048;2023-05-07T10:06:31;18.30;75.40
49222;DHT22;35047;37.588;-122.048;2023-05-07T10:08:59;18.30;75.40
49222;DHT22;35047;37.588;-122.048;2023-05-07T10:11:26;18.30;75.80
49222;DHT22;35047;37.588;-122.048;2023-05-07T10:13:53;18.30;75.60
49222;DHT22;35047;37.588;-122.048;2023-05-07T10:16:21;18.30;75.40
49222;DHT22;35047;37.588;-122.048;2023-05-07T10:18:47;18.30;75.50
49222;DHT22;35047;37.588;-122.048;2023-05-07T10:21:23;18.20;75.50
49222;DHT22;35047;37.588;-122.048;2023-05-07T10:24:06;18.30;75.30
49222;DHT22;35047;37.588;-122.048;2023-05-07T10:26:43;18.40;74.80
49222;DHT22;35047;37.588;-122.048;2023-05-07T10:34:48;18.30;74.90
49222;DHT22;35047;37.588;-122.048;2023-05-07T10:37:17;18.30;75.20
49222;DHT22;35047;37.588;-122.048;2023-05-07T10:39:44;18.30;75.20
49222;DHT22;35047;37.588;-122.048;2023-05-07T10:42:12;18.30;75.60
49222;DHT22;35047;37.588;-122.048;2023-05-07T10:44:39;18.30;75.60
49222;DHT22;35047;37.588;-122.048;2023-05-07T10:47:09;18.40;75.50
49222;DHT22;35047;37.588;-122.048;2023-05-07T10:52:31;18.30;75.60
49222;DHT22;35047;37.588;-122.048;2023-05-07T10:57:46;18.20;75.80
49222;DHT22;35047;37.588;-122.048;2023-05-07T11:05:30;18.20;75.20
49222;DHT22;35047;37.588;-122.048;2023-05-07T11:07:59;18.30;75.10
49222;DHT22;35047;37.588;-122.048;2023-05-07T11:10:53;18.20;75.50
49222;DHT22;35047;37.588;-122.048;2023-05-07T11:13:48;18.20;75.50
49222;DHT22;35047;37.588;-122.048;2023-05-07T11:16:23;18.20;75.40
49222;DHT22;35047;37.588;-122.048;2023-05-07T11:18:53;18.30;75.10
49222;DHT22;35047;37.588;-122.048;2023-05-07T11:21:39;18.20;75.30
49222;DHT22;35047;37.588;-122.048;2023-05-07T11:24:09;18.30;75.30
49222;DHT22;35047;37.588;-122.048;2023-05-07T11:26:44;18.30;75.10
49222;DHT22;35047;37.588;-122.048;2023-05-07T11:29:15;18.30;75.00
49222;DHT22;35047;37.588;-122.048;2023-05-07T11:31:42;18.20;74.30
49222;DHT22;35047;37.588;-122.048;2023-05-07T11:34:09;18.20;74.40
49222;DHT22;35047;37.588;-122.048;2023-05-07T11:36:42;18.20;74.80
49222;DHT22;35047;37.588;-122.048;2023-05-07T11:41:51;18.20;75.30
49222;DHT22;35047;37.588;-122.048;2023-05-07T11:44:17;18.20;74.60
49222;DHT22;35047;37.588;-122.048;2023-05-07T11:46:44;18.20;74.90
49222;DHT22;35047;37.588;-122.048;2023-05-07T11:49:11;18.20;74.70
49222;DHT22;35047;37.588;-122.048;2023-05-07T11:51:39;18.20;74.60
49222;DHT22;35047;37.588;-122.048;2023-05-07T11:54:07;18.10;74.80
49222;DHT22;35047;37.588;-122.048;2023-05-07T11:56:35;18.10;75.60
49222;DHT22;35047;37.588;-122.048;2023-05-07T11:59:01;18.10;75.00
49222;DHT22;35047;37.588;-122.048;2023-05-07T12:01:28;18.10;74.80
49222;DHT22;35047;37.588;-122.048;2023-05-07T12:03:55;18.10;74.30
49222;DHT22;35047;37.588;-122.048;2023-05-07T12:06:22;18.10;74.20
49222;DHT22;35047;37.588;-122.048;2023-05-07T12:08:48;18.10;74.70
49222;DHT22;35047;37.588;-122.048;2023-05-07T12:11:25;18.10;74.80
49222;DHT22;35047;37.588;-122.048;2023-05-07T12:13:53;18.20;74.90
49222;DHT22;35047;37.588;-122.048;2023-05-07T12:16:19;18.20;74.70
49222;DHT22;35047;37.588;-122.048;2023-05-07T12:18:46;18.20;74.20
49222;DHT22;35047;37.588;-122.048;2023-05-07T12:21:13;18.40;73.70
49222;DHT22;35047;37.588;-122.048;2023-05-07T12:23:40;18.30;73.20
49222;DHT22;35047;37.588;-122.048;2023-05-07T12:26:07;18.40;73.00
49222;DHT22;35047;37.588;-122.048;2023-05-07T12:28:38;18.30;72.90
49222;DHT22;35047;37.588;-122.048;2023-05-07T12:31:05;18.30;73.20
49222;DHT22;35047;37.588;-122.048;2023-05-07T12:33:32;18.30;72.90
49222;DHT22;35047;37.588;-122.048;2023-05-07T12:36:04;18.10;72.70
49222;DHT22;35047;37.588;-122.048;2023-05-07T12:38:35;18.10;73.20
49222;DHT22;35047;37.588;-122.048;2023-05-07T12:41:02;18.10;73.70
49222;DHT22;35047;37.588;-122.048;2023-05-07T12:43:29;18.10;74.30
49222;DHT22;35047;37.588;-122.048;2023-05-07T12:45:58;18.10;74.20
49222;DHT22;35047;37.588;-122.048;2023-05-07T12:48:25;18.10;74.50
49222;DHT22;35047;37.588;-122.048;2023-05-07T12:50:56;18.10;74.00
49222;DHT22;35047;37.588;-122.048;2023-05-07T12:53:24;18.10;73.90
49222;DHT22;35047;37.588;-122.048;2023-05-07T12:55:53;18.20;74.20
49222;DHT22;35047;37.588;-122.048;2023-05-07T12:58:26;18.30;74.30
49222;DHT22;35047;37.588;-122.048;2023-05-07T13:01:00;18.20;74.10
49222;DHT22;35047;37.588;-122.048;2023-05-07T13:03:30;18.20;74.00
49222;DHT22;35047;37.588;-122.048;2023-05-07T13:06:08;18.20;74.40
49222;DHT22;35047;37.588;-122.048;2023-05-07T13:08:41;18.10;74.80
49222;DHT22;35047;37.588;-122.048;2023-05-07T13:11:11;18.10;74.70
49222;DHT22;35047;37.588;-122.048;2023-05-07T13:13:39;18.10;74.70
49222;DHT22;35047;37.588;-122.048;2023-05-07T13:16:08;18.10;74.30
49222;DHT22;35047;37.588;-122.048;2023-05-07T13:18:35;18.10;74.40
49222;DHT22;35047;37.588;-122.048;2023-05-07T13:21:02;18.10;74.30
49222;DHT22;35047;37.588;-122.048;2023-05-07T13:23:28;18.20;74.20
49222;DHT22;35047;37.588;-122.048;2023-05-07T13:25:55;18.10;74.30
49222;DHT22;35047;37.588;-122.048;2023-05-07T13:28:25;18.20;74.00
49222;DHT22;35047;37.588;-122.048;2023-05-07T13:30:52;18.20;74.60
49222;DHT22;35047;37.588;-122.048;2023-05-07T13:33:20;18.20;74.80
49222;DHT22;35047;37.588;-122.048;2023-05-07T13:35:46;18.20;74.80
49222;DHT22;35047;37.588;-122.048;2023-05-07T13:38:13;18.20;74.60
49222;DHT22;35047;37.588;-122.048;2023-05-07T13:40:41;18.20;74.60
49222;DHT22;35047;37.588;-122.048;2023-05-07T13:43:08;18.30;74.00
49222;DHT22;35047;37.588;-122.048;2023-05-07T13:45:35;18.30;73.60
49222;DHT22;35047;37.588;-122.048;2023-05-07T13:48:03;18.30;73.60
49222;DHT22;35047;37.588;-122.048;2023-05-07T13:50:29;18.30;74.40
49222;DHT22;35047;37.588;-122.048;2023-05-07T13:52:56;18.30;74.40
49222;DHT22;35047;37.588;-122.048;2023-05-07T13:55:24;18.30;74.10
49222;DHT22;35047;37.588;-122.048;2023-05-07T13:58:01;18.30;74.00
49222;DHT22;35047;37.588;-122.048;2023-05-07T14:00:29;18.40;73.70
49222;DHT22;35047;37.588;-122.048;2023-05-07T14:02:56;18.40;73.40
49222;DHT22;35047;37.588;-122.048;2023-05-07T14:05:23;18.40;72.60
49222;DHT22;35047;37.588;-122.048;2023-05-07T14:07:51;18.40;72.60
49222;DHT22;35047;37.588;-122.048;2023-05-07T14:10:18;18.40;71.70
49222;DHT22;35047;37.588;-122.048;2023-05-07T14:12:46;18.50;72.30
49222;DHT22;35047;37.588;-122.048;2023-05-07T14:15:12;18.50;71.60
49222;DHT22;35047;37.588;-122.048;2023-05-07T14:17:39;18.50;71.00
49222;DHT22;35047;37.588;-122.048;2023-05-07T14:20:06;18.50;71.80
49222;DHT22;35047;37.588;-122.048;2023-05-07T14:22:33;18.50;72.30
49222;DHT22;35047;37.588;-122.048;2023-05-07T14:24:59;18.40;69.10
49222;DHT22;35047;37.588;-122.048;2023-05-07T14:27:26;18.40;72.70
49222;DHT22;35047;37.588;-122.048;2023-05-07T14:29:52;18.50;72.30
49222;DHT22;35047;37.588;-122.048;2023-05-07T14:32:20;18.50;71.20
49222;DHT22;35047;37.588;-122.048;2023-05-07T14:34:46;18.60;71.60
49222;DHT22;35047;37.588;-122.048;2023-05-07T14:37:13;18.60;70.70
49222;DHT22;35047;37.588;-122.048;2023-05-07T14:39:40;18.70;71.70
49222;DHT22;35047;37.588;-122.048;2023-05-07T14:42:07;18.60;70.90
49222;DHT22;35047;37.588;-122.048;2023-05-07T14:44:37;18.60;71.00
49222;DHT22;35047;37.588;-122.048;2023-05-07T14:47:06;18.60;72.10
49222;DHT22;35047;37.588;-122.048;2023-05-07T14:49:33;18.70;72.30
49222;DHT22;35047;37.588;-122.048;2023-05-07T14:51:59;18.50;69.00
49222;DHT22;35047;37.588;-122.048;2023-05-07T14:54:26;18.60;72.60
49222;DHT22;35047;37.588;-122.048;2023-05-07T14:56:53;18.60;71.50
49222;DHT22;35047;37.588;-122.048;2023-05-07T14:59:19;18.40;69.10
49222;DHT22;35047;37.588;-122.048;2023-05-07T15:01:47;18.50;71.50
49222;DHT22;35047;37.588;-122.048;2023-05-07T15:04:14;18.60;71.70
49222;DHT22;35047;37.588;-122.048;2023-05-07T15:06:40;18.70;70.90
49222;DHT22;35047;37.588;-122.048;2023-05-07T15:09:07;18.90;71.20
49222;DHT22;35047;37.588;-122.048;2023-05-07T15:11:34;18.90;72.40